createdAt,value
2018-07-14T00:00:10.040Z,99.90
2018-07-14T00:02:42.616Z,99.90
2018-07-14T00:05:15.042Z,99.90
2018-07-14T00:07:48.905Z,99.90
2018-07-14T00:10:21.647Z,99.90
2018-07-14T00:12:54.056Z,99.90
2018-07-14T00:15:26.577Z,99.90
2018-07-14T00:17:59.016Z,99.90
2018-07-14T00:20:31.486Z,99.90
2018-07-14T00:23:03.892Z,99.90
2018-07-14T00:25:42.172Z,99.90
2018-07-14T00:28:14.715Z,99.90
2018-07-14T00:30:47.127Z,99.90
2018-07-14T00:33:19.658Z,99.90
2018-07-14T00:35:52.035Z,99.90
2018-07-14T00:38:25.001Z,99.90
2018-07-14T00:40:57.416Z,99.90
2018-07-14T00:43:29.920Z,99.90
2018-07-14T00:46:02.820Z,99.90
2018-07-14T00:48:39.234Z,99.90
2018-07-14T00:51:11.661Z,99.90
2018-07-14T00:53:44.075Z,99.90
2018-07-14T00:56:16.539Z,99.90
2018-07-14T00:58:48.991Z,99.90
2018-07-14T01:01:21.418Z,99.90
2018-07-14T01:03:53.964Z,99.90
2018-07-14T01:06:26.388Z,99.90
2018-07-14T01:08:59.954Z,99.90
2018-07-14T01:11:32.330Z,99.90
2018-07-14T01:14:04.990Z,99.90
2018-07-14T01:16:37.457Z,99.90
2018-07-14T01:19:10.161Z,99.90
2018-07-14T01:21:42.546Z,99.90
2018-07-14T01:24:15.377Z,99.90
2018-07-14T01:26:47.852Z,99.90
2018-07-14T01:29:20.422Z,99.90
2018-07-14T01:34:25.301Z,99.90
2018-07-14T01:36:57.822Z,99.90
2018-07-14T01:39:30.593Z,99.90
2018-07-14T01:42:03.127Z,99.90
2018-07-14T01:44:35.688Z,99.90
2018-07-14T01:47:08.355Z,99.90
2018-07-14T01:49:40.921Z,99.90
2018-07-14T01:52:13.464Z,99.90
2018-07-14T01:54:45.959Z,99.90
2018-07-14T01:57:18.418Z,99.90
2018-07-14T01:59:50.901Z,99.90
2018-07-14T02:02:23.404Z,99.90
2018-07-14T02:04:55.957Z,99.90
2018-07-14T02:07:28.681Z,99.90
2018-07-14T02:10:01.270Z,99.90
2018-07-14T02:12:33.761Z,99.90
2018-07-14T02:15:06.519Z,99.90
2018-07-14T02:17:39.111Z,99.90
2018-07-14T02:20:11.669Z,99.90
2018-07-14T02:22:44.119Z,99.90
2018-07-14T02:25:16.554Z,99.90
2018-07-14T02:27:48.980Z,99.90
2018-07-14T02:30:21.463Z,99.90
2018-07-14T02:32:53.933Z,99.90
2018-07-14T02:35:26.435Z,99.90
2018-07-14T02:37:58.858Z,99.90
2018-07-14T02:40:31.353Z,99.90
2018-07-14T02:43:04.816Z,99.90
2018-07-14T02:45:37.280Z,99.90
2018-07-14T02:48:10.253Z,99.90
2018-07-14T02:50:42.817Z,99.90
2018-07-14T02:53:15.307Z,99.90
2018-07-14T02:58:20.275Z,99.90
2018-07-14T03:00:52.708Z,99.90
2018-07-14T03:03:25.197Z,99.90
2018-07-14T03:05:57.603Z,99.90
2018-07-14T03:08:30.052Z,99.90
2018-07-14T03:11:02.964Z,99.90
2018-07-14T03:13:35.439Z,99.90
2018-07-14T03:18:40.268Z,99.90
2018-07-14T03:21:12.784Z,99.90
2018-07-14T03:23:45.192Z,99.90
2018-07-14T03:28:50.129Z,99.90
2018-07-14T03:31:22.591Z,99.90
2018-07-14T03:33:55.015Z,99.90
2018-07-14T03:36:27.517Z,99.90
2018-07-14T03:38:59.914Z,99.90
2018-07-14T03:41:32.489Z,99.90
2018-07-14T03:44:04.900Z,99.90
2018-07-14T03:46:37.311Z,99.90
2018-07-14T03:49:09.750Z,99.90
2018-07-14T03:51:42.266Z,99.90
2018-07-14T03:54:14.673Z,99.90
2018-07-14T03:56:47.251Z,99.90
2018-07-14T03:59:19.662Z,99.90
2018-07-14T04:01:52.311Z,99.90
2018-07-14T04:04:24.810Z,99.90
2018-07-14T04:06:57.240Z,99.90
2018-07-14T04:09:29.724Z,99.90
2018-07-14T04:12:02.308Z,99.90
2018-07-14T04:14:34.959Z,99.90
2018-07-14T04:17:07.404Z,99.90
2018-07-14T04:19:39.913Z,99.90
2018-07-14T04:22:12.409Z,99.90
2018-07-14T04:24:44.814Z,99.90
2018-07-14T04:27:17.429Z,99.90
2018-07-14T04:29:50.008Z,99.90
2018-07-14T04:32:23.028Z,99.90
2018-07-14T04:34:55.731Z,99.90
2018-07-14T04:37:28.309Z,99.90
2018-07-14T04:42:33.377Z,99.90
2018-07-14T04:45:05.871Z,99.90
2018-07-14T04:47:38.330Z,99.90
2018-07-14T04:50:10.942Z,99.90
2018-07-14T04:52:43.510Z,99.90
2018-07-14T04:55:15.918Z,99.90
2018-07-14T04:57:48.370Z,99.90
2018-07-14T05:00:21.085Z,99.90
2018-07-14T05:02:53.820Z,99.90
2018-07-14T05:05:26.252Z,99.90
2018-07-14T05:07:58.750Z,99.90
2018-07-14T05:10:31.346Z,99.90
2018-07-14T05:13:04.289Z,99.90
2018-07-14T05:15:36.964Z,99.90
2018-07-14T05:18:09.728Z,99.90
2018-07-14T05:20:42.385Z,99.90
2018-07-14T05:23:15.027Z,99.90
2018-07-14T05:25:47.750Z,99.90
2018-07-14T05:28:20.259Z,99.90
2018-07-14T05:30:52.753Z,99.90
2018-07-14T05:33:26.678Z,99.90
2018-07-14T05:35:59.371Z,99.90
2018-07-14T05:38:31.804Z,99.90
2018-07-14T05:41:04.312Z,99.90
2018-07-14T05:43:36.896Z,99.90
2018-07-14T05:46:09.395Z,99.90
2018-07-14T05:48:41.997Z,99.90
2018-07-14T05:51:14.476Z,99.90
2018-07-14T05:53:46.952Z,99.90
2018-07-14T05:56:19.370Z,99.90
2018-07-14T05:58:51.970Z,99.90
2018-07-14T06:03:56.879Z,99.90
2018-07-14T06:06:29.680Z,99.90
2018-07-14T06:09:02.203Z,99.90
2018-07-14T06:11:35.170Z,99.90
2018-07-14T06:14:07.700Z,99.90
2018-07-14T06:16:40.313Z,99.90
2018-07-14T06:19:12.771Z,99.90
2018-07-14T06:21:45.447Z,99.90
2018-07-14T06:24:19.084Z,99.90
2018-07-14T06:26:52.648Z,99.90
2018-07-14T06:29:25.405Z,99.90
2018-07-14T06:31:58.276Z,99.90
2018-07-14T06:34:30.879Z,99.90
2018-07-14T06:37:03.458Z,99.90
2018-07-14T06:39:36.177Z,99.90
2018-07-14T06:42:08.950Z,99.90
2018-07-14T06:44:41.481Z,99.90
2018-07-14T06:47:13.933Z,99.90
2018-07-14T06:49:46.453Z,99.90
2018-07-14T06:52:18.890Z,99.90
2018-07-14T06:54:52.101Z,99.90
2018-07-14T06:57:24.510Z,99.90
2018-07-14T06:59:56.998Z,99.90
2018-07-14T07:02:29.444Z,99.90
2018-07-14T07:05:01.907Z,99.90
2018-07-14T07:07:34.580Z,99.90
2018-07-14T07:10:07.418Z,99.90
2018-07-14T07:12:39.927Z,99.90
2018-07-14T07:15:12.548Z,99.90
2018-07-14T07:17:45.101Z,99.90
2018-07-14T07:20:17.981Z,99.90
2018-07-14T07:22:50.860Z,99.90
2018-07-14T07:25:23.675Z,99.90
2018-07-14T07:27:56.099Z,99.90
2018-07-14T07:30:28.561Z,99.90
2018-07-14T07:33:02.182Z,99.90
2018-07-14T07:35:35.169Z,99.90
2018-07-14T07:38:07.649Z,99.90
2018-07-14T07:40:40.329Z,99.90
2018-07-14T07:43:12.956Z,99.90
2018-07-14T07:45:45.799Z,99.90
2018-07-14T07:48:18.595Z,99.90
2018-07-14T07:50:51.580Z,99.90
2018-07-14T07:53:24.048Z,99.90
2018-07-14T07:55:56.787Z,99.90
2018-07-14T07:58:29.252Z,99.90
2018-07-14T08:01:01.825Z,99.90
2018-07-14T08:03:34.307Z,99.90
2018-07-14T08:06:07.033Z,99.90
2018-07-14T08:08:39.484Z,99.90
2018-07-14T08:11:12.270Z,99.90
2018-07-14T08:13:44.905Z,99.90
2018-07-14T08:16:17.421Z,99.90
2018-07-14T08:18:49.823Z,99.90
2018-07-14T08:21:22.303Z,99.90
2018-07-14T08:23:54.842Z,99.90
2018-07-14T08:26:27.301Z,99.90
2018-07-14T08:29:00.003Z,99.90
2018-07-14T08:31:32.607Z,99.90
2018-07-14T08:34:05.472Z,99.90
2018-07-14T08:36:41.905Z,99.90
2018-07-14T08:39:14.372Z,99.90
2018-07-14T08:41:52.025Z,99.90
2018-07-14T08:44:24.503Z,99.90
2018-07-14T08:46:56.991Z,99.90
2018-07-14T08:49:29.679Z,99.90
2018-07-14T08:52:02.159Z,99.90
2018-07-14T08:54:34.996Z,99.90
2018-07-14T08:57:07.427Z,99.90
2018-07-14T08:59:39.842Z,99.90
2018-07-14T09:02:12.324Z,99.90
2018-07-14T09:04:44.744Z,99.90
2018-07-14T09:07:17.187Z,99.90
2018-07-14T09:09:49.639Z,99.90
2018-07-14T09:12:22.319Z,99.90
2018-07-14T09:14:54.816Z,99.90
2018-07-14T09:17:27.351Z,99.90
2018-07-14T09:19:59.764Z,99.90
2018-07-14T09:22:32.250Z,99.90
2018-07-14T09:25:05.078Z,99.80
2018-07-14T09:27:37.676Z,99.00
2018-07-14T09:30:10.231Z,99.20
2018-07-14T09:32:42.810Z,99.30
2018-07-14T09:35:15.144Z,99.30
2018-07-14T09:37:47.850Z,98.80
2018-07-14T09:40:20.257Z,98.90
2018-07-14T09:47:57.758Z,98.10
2018-07-14T09:50:30.231Z,98.30
2018-07-14T09:53:02.844Z,98.60
2018-07-14T09:55:35.285Z,98.50
2018-07-14T09:58:07.866Z,98.30
2018-07-14T10:03:19.322Z,98.00
2018-07-14T10:05:51.761Z,97.70
2018-07-14T10:08:24.154Z,97.50
2018-07-14T10:10:57.247Z,97.60
2018-07-14T10:13:29.654Z,97.30
2018-07-14T10:16:02.312Z,96.90
2018-07-14T10:18:34.839Z,96.10
2018-07-14T10:21:07.274Z,95.60
2018-07-14T10:23:39.660Z,96.00
2018-07-14T10:26:12.130Z,96.10
2018-07-14T10:28:44.549Z,96.00
2018-07-14T10:31:17.012Z,96.00
2018-07-14T10:33:49.530Z,95.80
2018-07-14T10:36:22.151Z,95.90
2018-07-14T10:38:54.805Z,95.70
2018-07-14T10:41:27.242Z,95.80
2018-07-14T10:43:59.678Z,95.80
2018-07-14T10:46:32.169Z,96.00
2018-07-14T10:49:04.568Z,95.80
2018-07-14T10:51:37.086Z,95.80
2018-07-14T10:54:09.466Z,94.80
2018-07-14T10:56:41.958Z,94.50
2018-07-14T10:59:14.726Z,94.60
2018-07-14T11:01:47.254Z,94.50
2018-07-14T11:06:52.167Z,94.40
2018-07-14T11:09:24.591Z,94.00
2018-07-14T11:11:57.046Z,94.00
2018-07-14T11:14:29.459Z,94.30
2018-07-14T11:17:01.983Z,94.10
2018-07-14T11:19:34.399Z,94.40
2018-07-14T11:22:07.237Z,94.40
2018-07-14T11:24:39.649Z,94.20
2018-07-14T11:27:12.421Z,94.40
2018-07-14T11:29:44.888Z,94.40
2018-07-14T11:32:17.407Z,99.90
2018-07-14T11:34:49.852Z,94.20
2018-07-14T11:37:22.342Z,94.10
2018-07-14T11:39:56.911Z,93.60
2018-07-14T11:42:30.204Z,93.80
2018-07-14T11:45:02.774Z,93.70
2018-07-14T11:47:35.345Z,93.70
2018-07-14T11:50:07.978Z,94.50
2018-07-14T11:52:40.428Z,94.60
2018-07-14T11:55:12.881Z,93.90
2018-07-14T11:57:45.274Z,93.70
2018-07-14T12:00:17.846Z,93.60
2018-07-14T12:02:50.357Z,94.10
2018-07-14T12:05:22.822Z,94.30
2018-07-14T12:07:55.384Z,94.10
2018-07-14T12:10:29.155Z,93.90
2018-07-14T12:13:01.735Z,92.90
2018-07-14T12:15:34.134Z,92.60
2018-07-14T12:18:06.676Z,92.90
2018-07-14T12:20:39.097Z,93.10
2018-07-14T12:23:11.731Z,93.60
2018-07-14T12:25:44.182Z,93.50
2018-07-14T12:28:16.861Z,93.00
2018-07-14T12:30:49.366Z,93.00
2018-07-14T12:33:21.787Z,92.80
2018-07-14T12:35:54.205Z,93.20
2018-07-14T12:38:26.623Z,93.20
2018-07-14T12:40:59.103Z,92.70
2018-07-14T12:43:31.774Z,93.00
2018-07-14T12:46:04.460Z,93.00
2018-07-14T12:48:36.936Z,92.80
2018-07-14T12:51:09.441Z,92.70
2018-07-14T12:53:42.000Z,92.80
2018-07-14T12:56:14.502Z,92.60
2018-07-14T12:58:47.586Z,92.60
2018-07-14T13:01:20.076Z,92.60
2018-07-14T13:03:52.510Z,92.30
2018-07-14T13:06:25.007Z,92.90
2018-07-14T13:08:57.489Z,92.40
2018-07-14T13:11:30.006Z,92.50
2018-07-14T13:14:02.505Z,92.20
2018-07-14T13:16:35.558Z,92.20
2018-07-14T13:19:08.247Z,92.40
2018-07-14T13:21:40.799Z,92.50
2018-07-14T13:24:13.567Z,92.90
2018-07-14T13:29:18.470Z,92.00
2018-07-14T13:31:51.260Z,92.00
2018-07-14T13:34:24.198Z,92.20
2018-07-14T13:36:56.707Z,92.70
2018-07-14T13:39:29.172Z,92.70
2018-07-14T13:42:01.966Z,92.50
2018-07-14T13:44:34.387Z,92.20
2018-07-14T13:47:06.864Z,92.20
2018-07-14T13:49:39.466Z,92.60
2018-07-14T13:52:12.151Z,92.20
2018-07-14T13:54:44.931Z,92.30
2018-07-14T13:57:17.342Z,92.60
2018-07-14T13:59:49.845Z,92.40
2018-07-14T14:02:22.319Z,92.20
2018-07-14T14:04:54.843Z,92.50
2018-07-14T14:07:27.301Z,91.90
2018-07-14T14:09:59.876Z,91.80
2018-07-14T14:12:32.648Z,92.00
2018-07-14T14:15:05.655Z,92.00
2018-07-14T14:17:38.164Z,91.80
2018-07-14T14:20:10.777Z,91.80
2018-07-14T14:25:18.443Z,90.90
2018-07-14T14:27:51.558Z,90.80
2018-07-14T14:30:24.241Z,91.10
2018-07-14T14:32:57.480Z,91.00
2018-07-14T14:35:30.492Z,90.70
2018-07-14T14:38:03.221Z,90.50
2018-07-14T14:40:36.047Z,90.60
2018-07-14T14:43:08.788Z,90.80
2018-07-14T14:45:41.582Z,90.60
2018-07-14T14:48:15.165Z,90.30
2018-07-14T14:50:48.097Z,90.80
2018-07-14T14:53:21.002Z,90.40
2018-07-14T14:55:53.664Z,90.20
2018-07-14T14:58:26.160Z,90.00
2018-07-14T15:00:58.783Z,89.70
2018-07-14T15:03:31.418Z,90.20
2018-07-14T15:06:04.515Z,90.00
2018-07-14T15:08:37.009Z,90.30
2018-07-14T15:11:09.676Z,89.60
2018-07-14T15:13:42.469Z,90.00
2018-07-14T15:16:15.192Z,90.00
2018-07-14T15:18:47.680Z,90.00
2018-07-14T15:21:20.329Z,90.00
2018-07-14T15:23:52.891Z,90.00
2018-07-14T15:26:25.748Z,89.60
2018-07-14T15:28:58.437Z,88.90
2018-07-14T15:31:31.042Z,88.80
2018-07-14T15:34:03.876Z,89.60
2018-07-14T15:36:47.768Z,89.20
2018-07-14T15:39:20.649Z,89.50
2018-07-14T15:41:53.267Z,88.90
2018-07-14T15:44:26.163Z,88.60
2018-07-14T15:46:58.853Z,89.00
2018-07-14T15:49:32.135Z,88.90
2018-07-14T15:52:05.234Z,88.90
2018-07-14T15:54:38.181Z,89.10
2018-07-14T15:57:11.018Z,88.00
2018-07-14T15:59:43.986Z,87.80
2018-07-14T16:02:17.384Z,88.60
2018-07-14T16:04:50.648Z,88.50
2018-07-14T16:07:23.292Z,88.90
2018-07-14T16:09:56.238Z,89.20
2018-07-14T16:12:28.707Z,88.90
2018-07-14T16:15:01.471Z,89.30
2018-07-14T16:17:34.469Z,88.80
2018-07-14T16:20:09.437Z,88.80
2018-07-14T16:22:42.220Z,89.20
2018-07-14T16:25:15.108Z,88.90
2018-07-14T16:27:48.025Z,88.80
2018-07-14T16:30:20.837Z,88.70
2018-07-14T16:32:53.884Z,88.70
2018-07-14T16:35:26.657Z,88.20
2018-07-14T16:37:59.430Z,88.70
2018-07-14T16:40:32.051Z,88.30
2018-07-14T16:43:04.908Z,88.30
2018-07-14T16:45:38.105Z,88.40
2018-07-14T16:48:10.938Z,88.20
2018-07-14T16:50:43.727Z,88.70
2018-07-14T16:53:16.493Z,89.20
2018-07-14T16:55:49.265Z,89.20
2018-07-14T16:58:30.087Z,89.00
2018-07-14T17:01:10.038Z,89.20
2018-07-14T17:03:43.469Z,89.30
2018-07-14T17:06:16.339Z,88.70
2018-07-14T17:08:49.036Z,88.70
2018-07-14T17:11:22.119Z,88.80
2018-07-14T17:13:55.000Z,88.90
2018-07-14T17:16:28.268Z,89.30
2018-07-14T17:19:01.006Z,88.90
2018-07-14T17:21:34.019Z,88.90
2018-07-14T17:24:07.079Z,89.20
2018-07-14T17:26:39.849Z,89.10
2018-07-14T17:29:12.612Z,88.90
2018-07-14T17:31:45.574Z,89.70
2018-07-14T17:34:18.659Z,89.30
2018-07-14T17:36:52.080Z,89.30
2018-07-14T17:39:25.317Z,89.20
2018-07-14T17:41:58.365Z,89.70
2018-07-14T17:44:31.372Z,90.10
2018-07-14T17:47:04.421Z,89.70
2018-07-14T17:49:37.304Z,90.00
2018-07-14T17:52:10.261Z,90.00
2018-07-14T17:54:43.570Z,90.00
2018-07-14T17:57:16.552Z,90.10
2018-07-14T17:59:49.291Z,90.10
2018-07-14T18:02:22.312Z,90.30
2018-07-14T18:04:55.309Z,90.70
2018-07-14T18:07:28.780Z,90.40
2018-07-14T18:10:03.205Z,90.40
2018-07-14T18:12:36.682Z,90.70
2018-07-14T18:15:10.751Z,90.70
2018-07-14T18:17:43.754Z,90.80
2018-07-14T18:20:17.402Z,90.60
2018-07-14T18:22:50.214Z,90.50
2018-07-14T18:25:23.273Z,90.50
2018-07-14T18:27:57.220Z,90.50
2018-07-14T18:30:29.976Z,90.50
2018-07-14T18:33:03.684Z,90.70
2018-07-14T18:35:37.662Z,90.80
2018-07-14T18:38:10.446Z,90.80
2018-07-14T18:40:44.490Z,91.00
2018-07-14T18:43:17.422Z,91.50
2018-07-14T18:45:50.782Z,91.80
2018-07-14T18:50:58.234Z,92.10
2018-07-14T18:53:31.845Z,92.60
2018-07-14T18:56:05.024Z,92.80
2018-07-14T18:58:38.460Z,92.90
2018-07-14T19:01:11.497Z,92.90
2018-07-14T19:03:44.896Z,93.10
2018-07-14T19:06:18.201Z,93.20
2018-07-14T19:08:51.503Z,93.40
2018-07-14T19:11:24.637Z,93.40
2018-07-14T19:13:57.482Z,93.60
2018-07-14T19:16:30.543Z,93.50
2018-07-14T19:19:03.250Z,93.60
2018-07-14T19:21:36.454Z,94.30
2018-07-14T20:12:35.349Z,94.80
2018-07-14T20:15:08.430Z,96.10
2018-07-14T20:17:41.314Z,96.10
2018-07-14T20:20:14.000Z,96.30
2018-07-14T20:22:46.939Z,96.50
2018-07-14T20:27:53.980Z,96.90
2018-07-14T20:30:50.276Z,96.90
2018-07-14T20:33:24.649Z,97.00
2018-07-14T20:42:20.607Z,97.10
2018-07-14T20:44:54.254Z,97.10
2018-07-14T20:47:26.726Z,97.50
2018-07-14T20:53:10.264Z,97.60
2018-07-14T20:55:43.143Z,97.60
2018-07-14T20:58:16.120Z,97.70
2018-07-14T21:00:49.270Z,97.60
2018-07-14T21:03:22.236Z,97.60
2018-07-14T21:05:56.059Z,97.70
2018-07-14T21:08:28.814Z,97.60
2018-07-14T21:13:34.621Z,97.60
2018-07-14T21:16:07.441Z,97.60
2018-07-14T21:18:39.970Z,97.60
2018-07-14T21:21:13.010Z,97.70
2018-07-14T21:23:45.837Z,97.60
2018-07-14T21:26:18.602Z,97.60
2018-07-14T21:28:51.305Z,97.50
2018-07-14T21:31:23.998Z,97.90
2018-07-14T21:33:56.676Z,97.90
2018-07-14T21:36:29.604Z,98.00
2018-07-14T21:39:04.700Z,98.10
2018-07-14T21:41:37.663Z,98.10
2018-07-14T21:44:13.267Z,98.20
2018-07-14T21:46:46.133Z,98.20
2018-07-14T21:49:18.781Z,98.30
2018-07-14T21:51:51.448Z,98.30
2018-07-14T21:54:24.300Z,98.40
2018-07-14T21:56:56.886Z,98.40
2018-07-14T21:59:29.712Z,98.40
2018-07-14T22:02:06.246Z,98.40
2018-07-14T22:04:39.090Z,98.20
2018-07-14T22:07:11.922Z,98.40
2018-07-14T22:09:44.786Z,98.40
2018-07-14T22:12:17.401Z,98.40
2018-07-14T22:14:50.418Z,98.40
2018-07-14T22:17:23.820Z,98.40
2018-07-14T22:19:56.663Z,98.50
2018-07-14T22:22:29.948Z,98.40
2018-07-14T22:27:37.533Z,98.20
2018-07-14T22:30:10.582Z,98.50
2018-07-14T22:32:45.951Z,98.40
2018-07-14T22:35:19.117Z,98.70
2018-07-14T22:37:53.090Z,98.70
2018-07-14T22:40:28.084Z,98.70
2018-07-14T22:43:01.675Z,98.70
2018-07-14T22:45:35.517Z,98.80
2018-07-14T22:48:08.331Z,98.80
2018-07-14T22:50:41.465Z,98.80
2018-07-14T22:53:14.545Z,98.80
2018-07-14T22:55:47.634Z,98.80
2018-07-14T22:58:21.278Z,98.90
2018-07-14T23:00:54.264Z,98.90
2018-07-14T23:03:28.226Z,99.00
2018-07-14T23:06:01.534Z,99.10
2018-07-14T23:08:34.820Z,99.00
2018-07-14T23:11:08.737Z,99.20
2018-07-14T23:13:41.340Z,99.10
2018-07-14T23:16:15.509Z,99.10
2018-07-14T23:18:50.859Z,99.20
2018-07-14T23:21:23.576Z,99.30
2018-07-14T23:23:57.199Z,99.40
2018-07-14T23:26:30.754Z,99.40
2018-07-14T23:29:03.734Z,99.40
2018-07-14T23:31:36.385Z,99.30
2018-07-14T23:34:08.954Z,99.40
2018-07-14T23:36:41.386Z,99.50
2018-07-14T23:41:48.765Z,99.50
2018-07-14T23:44:21.530Z,99.70
2018-07-14T23:46:54.225Z,99.80
2018-07-14T23:49:26.904Z,99.70
2018-07-14T23:51:59.459Z,99.70
2018-07-14T23:54:32.126Z,99.70
2018-07-14T23:57:05.831Z,99.60
2018-07-14T23:59:38.899Z,99.70
